Time;durP1;ratioP1;P1;durP2;ratioP2;P2;SDS_P1;SDS_P2;PMS_P1;PMS_P2;Temp;Humidity;BMP_temperature;BMP_pressure;BME280_temperature;BME280_humidity;BME280_pressure;Samples;Min_cycle;Max_cycle;Signal;HPM_P1;HPM_P2
2022/11/01 00:00:18;;;;;;;0.07;0.07;;;;;;;15.16;64.86;97896.56;8219113;28;20234;-79
2022/11/01 00:04:21;;;;;;;0.00;0.00;;;;;;;15.21;64.77;97896.28;8219283;29;20235;-79
2022/11/01 00:08:24;;;;;;;0.00;0.00;;;;;;;15.15;65.19;97887.06;8219218;29;20227;-79
2022/11/01 00:12:27;;;;;;;0.00;0.00;;;;;;;15.15;65.15;97874.03;8219053;29;20278;-79
2022/11/01 00:16:31;;;;;;;0.00;0.00;;;;;;;15.17;65.28;97879.16;8218918;29;20226;-79
2022/11/01 00:20:34;;;;;;;0.10;0.10;;;;;;;15.22;65.16;97900.56;8218836;29;20231;-80
2022/11/01 00:24:37;;;;;;;0.00;0.00;;;;;;;15.16;65.03;97921.84;8218362;29;20235;-80
2022/11/01 00:28:39;;;;;;;0.00;0.00;;;;;;;14.97;65.53;97920.38;8218807;29;20231;-80
2022/11/01 00:32:44;;;;;;;0.00;0.00;;;;;;;15.11;65.07;97913.44;8218378;29;20235;-80
2022/11/01 00:36:47;;;;;;;0.00;0.00;;;;;;;14.97;65.23;97925.59;8218415;29;20281;-80
2022/11/01 00:40:49;;;;;;;0.00;0.00;;;;;;;15.03;65.20;97920.00;8218135;29;20234;-80
2022/11/01 00:44:52;;;;;;;0.00;0.00;;;;;;;15.02;65.01;97913.13;8186198;29;20231;-79
2022/11/01 00:48:56;;;;;;;0.00;0.00;;;;;;;15.01;65.18;97921.84;8186774;29;20235;-79
2022/11/01 00:52:59;;;;;;;0.00;0.00;;;;;;;15.08;65.33;97916.25;8186121;29;20307;-80
2022/11/01 00:57:02;;;;;;;0.00;0.00;;;;;;;15.01;65.44;97921.03;8186355;29;20237;-79
2022/11/01 01:01:05;;;;;;;0.00;0.00;;;;;;;14.99;65.46;97920.28;8186376;29;20251;-79
2022/11/01 01:05:10;;;;;;;0.00;0.00;;;;;;;14.92;65.29;97913.78;8186432;29;20443;-79
2022/11/01 01:09:12;;;;;;;0.00;0.00;;;;;;;14.99;65.55;97917.69;8186413;29;20424;-79
2022/11/01 01:13:15;;;;;;;0.00;0.00;;;;;;;14.99;65.62;97918.50;8190882;29;20298;-80
2022/11/01 01:17:18;;;;;;;0.03;0.03;;;;;;;15.02;65.45;97927.91;8192578;29;20240;-80
2022/11/01 01:21:23;;;;;;;0.00;0.00;;;;;;;14.94;65.29;97930.16;8192413;29;20258;-80
2022/11/01 01:25:25;;;;;;;0.10;0.10;;;;;;;14.83;65.70;97923.00;8192351;29;20547;-79
2022/11/01 01:29:29;;;;;;;0.00;0.00;;;;;;;14.87;65.15;97919.28;8192169;29;20456;-80
2022/11/01 01:33:31;;;;;;;0.00;0.00;;;;;;;14.86;65.58;97928.03;8191839;29;20239;-80
2022/11/01 01:37:36;;;;;;;0.10;0.10;;;;;;;14.88;65.58;97915.75;8191742;29;20515;-80
2022/11/01 01:41:56;;;;;;;0.00;0.00;;;;;;;14.94;65.26;97910.13;8191559;29;20235;-80
2022/11/01 01:45:59;;;;;;;0.10;0.10;;;;;;;14.91;65.32;97918.16;8198026;28;20239;-79
2022/11/01 01:50:07;;;;;;;0.00;0.00;;;;;;;14.92;65.65;97904.19;8191148;28;20239;-79
2022/11/01 01:54:11;;;;;;;0.00;0.00;;;;;;;14.94;65.92;97910.13;8190902;28;20263;-80
2022/11/01 01:58:15;;;;;;;0.03;0.03;;;;;;;14.83;66.82;97915.19;8190869;28;20279;-79
2022/11/01 02:02:18;;;;;;;0.00;0.00;;;;;;;14.92;66.13;97919.81;8190667;28;20240;-79
2022/11/01 02:06:23;;;;;;;0.00;0.00;;;;;;;14.86;66.19;97915.81;8190582;28;20238;-80
2022/11/01 02:10:32;;;;;;;0.00;0.00;;;;;;;14.89;66.11;97919.16;8190509;28;20550;-80
2022/11/01 02:14:35;;;;;;;0.00;0.00;;;;;;;14.82;66.29;97910.91;8190443;28;20231;-79
2022/11/01 02:18:41;;;;;;;0.00;0.00;;;;;;;14.89;66.16;97906.13;8190415;28;20239;-80
2022/11/01 02:23:02;;;;;;;0.00;0.00;;;;;;;14.82;65.70;97906.53;8189903;28;20310;-80
2022/11/01 02:27:14;;;;;;;0.00;0.00;;;;;;;14.78;66.17;97906.84;8221715;29;20296;-80
2022/11/01 02:31:39;;;;;;;0.00;0.00;;;;;;;14.83;66.02;97904.75;8221884;29;20239;-80
2022/11/01 02:35:52;;;;;;;0.00;0.00;;;;;;;14.85;65.55;97906.34;8221729;29;20230;-80
2022/11/01 02:40:00;;;;;;;0.00;0.00;;;;;;;14.82;65.95;97900.50;8213296;29;20238;-79
2022/11/01 02:44:04;;;;;;;0.00;0.00;;;;;;;14.86;65.76;97905.41;8221439;29;20260;-79
2022/11/01 02:48:07;;;;;;;0.00;0.00;;;;;;;14.77;66.33;97905.16;8221451;29;20323;-79
2022/11/01 02:52:13;;;;;;;0.00;0.00;;;;;;;14.84;66.16;97906.44;8220862;28;20251;-79
2022/11/01 02:56:17;;;;;;;0.00;0.00;;;;;;;14.86;66.23;97912.38;8221221;29;20246;-79
2022/11/01 03:00:22;;;;;;;0.00;0.00;;;;;;;14.85;66.17;97906.34;8220893;29;20282;-80
2022/11/01 03:04:25;;;;;;;0.00;0.00;;;;;;;14.83;66.44;97907.34;8220728;29;20231;-79
2022/11/01 03:08:33;;;;;;;0.00;0.00;;;;;;;14.84;66.48;97902.06;8220351;29;20577;-80
2022/11/01 03:12:42;;;;;;;0.00;0.00;;;;;;;14.85;66.38;97910.72;8220574;29;20238;-80
2022/11/01 03:16:53;;;;;;;0.00;0.00;;;;;;;14.88;66.21;97912.31;8220428;29;20238;-79
2022/11/01 03:20:59;;;;;;;0.00;0.00;;;;;;;14.79;66.57;97921.53;8195680;28;20569;-79
2022/11/01 03:25:36;;;;;;;0.00;0.00;;;;;;;14.85;66.57;97915.94;8188192;28;20238;-79
2022/11/01 03:29:31;;;;;;;0.00;0.00;;;;;;;14.86;66.67;97926.25;8188265;28;20250;-80
2022/11/01 03:33:35;;;;;;;0.00;0.00;;;;;;;14.86;66.58;97933.25;8187428;28;20511;-80
2022/11/01 03:37:39;;;;;;;0.00;0.00;;;;;;;14.89;66.73;97925.25;8188013;28;20235;-80
2022/11/01 03:41:45;;;;;;;0.00;0.00;;;;;;;14.78;66.99;97925.91;8187838;28;20232;-80
2022/11/01 03:45:48;;;;;;;0.00;0.00;;;;;;;14.84;66.59;97938.56;8187757;28;20235;-80
2022/11/01 03:50:13;;;;;;;0.00;0.00;;;;;;;14.83;66.57;97943.84;8187543;28;20239;-79
2022/11/01 03:54:16;;;;;;;0.00;0.00;;;;;;;14.70;66.81;97930.78;8205710;28;20241;-79
2022/11/01 03:58:20;;;;;;;0.07;0.07;;;;;;;14.78;66.72;97930.28;8219073;29;20294;-79
2022/11/01 04:02:22;;;;;;;0.00;0.00;;;;;;;14.78;66.72;97938.13;8219120;29;20523;-80
2022/11/01 04:06:25;;;;;;;0.00;0.00;;;;;;;14.81;66.39;97946.59;8218977;29;20278;-80
2022/11/01 04:10:28;;;;;;;0.10;0.10;;;;;;;14.79;66.91;97952.81;8218838;29;20241;-80
2022/11/01 04:23:16;;;;;;;0.00;0.00;;;;;;;14.89;66.83;97955.69;8218379;29;20432;-79
2022/11/01 04:27:18;;;;;;;0.10;0.10;;;;;;;14.79;66.69;97951.06;8218214;29;20227;-79
2022/11/01 04:31:23;;;;;;;0.00;0.00;;;;;;;14.76;66.74;97955.63;8218222;29;20265;-80
2022/11/01 04:35:26;;;;;;;0.00;0.00;;;;;;;14.74;66.97;97960.09;8218159;29;20521;-80
2022/11/01 04:39:29;;;;;;;0.00;0.00;;;;;;;14.80;66.90;97957.09;8218106;29;20526;-80
2022/11/01 04:43:31;;;;;;;0.00;0.00;;;;;;;14.81;66.81;97953.53;8217948;29;20238;-80
2022/11/01 04:47:35;;;;;;;0.03;0.03;;;;;;;14.86;66.96;97961.94;8218032;28;20250;-79
2022/11/01 04:51:39;;;;;;;0.00;0.00;;;;;;;14.84;67.04;97967.22;8217656;28;20415;-79
2022/11/01 04:55:43;;;;;;;0.00;0.00;;;;;;;14.90;66.96;97973.84;8217728;29;20453;-79
2022/11/01 04:59:45;;;;;;;0.00;0.00;;;;;;;14.85;67.03;97966.31;8217876;29;20242;-80
2022/11/01 05:03:49;;;;;;;0.00;0.00;;;;;;;14.90;67.22;97975.63;8217884;29;20433;-80
2022/11/01 05:07:59;;;;;;;0.03;0.03;;;;;;;14.92;67.13;97992.84;8217008;29;20230;-78
2022/11/01 05:12:03;;;;;;;0.10;0.10;;;;;;;14.98;67.69;97996.81;8217615;29;20242;-80
2022/11/01 05:16:06;;;;;;;0.00;0.00;;;;;;;14.92;68.04;97992.84;8217573;29;20243;-80
2022/11/01 05:20:23;;;;;;;0.00;0.00;;;;;;;15.01;67.81;97986.22;8217607;29;20545;-80
2022/11/01 05:24:25;;;;;;;0.00;0.00;;;;;;;14.93;67.98;98001.50;8217157;29;20301;-79
2022/11/01 05:28:28;;;;;;;0.00;0.00;;;;;;;14.98;67.88;98021.16;8217184;29;20231;-79
2022/11/01 05:32:31;;;;;;;0.00;0.00;;;;;;;14.99;67.64;98007.16;8217162;29;20238;-79
2022/11/01 05:36:35;;;;;;;0.00;0.00;;;;;;;14.99;67.82;98008.94;8217434;29;20426;-79
2022/11/01 05:40:38;;;;;;;0.00;0.00;;;;;;;14.94;68.23;98024.03;8217250;29;20246;-79
2022/11/01 05:44:40;;;;;;;0.00;0.00;;;;;;;14.97;67.74;98029.91;8217181;29;20230;-79
2022/11/01 05:48:43;;;;;;;0.00;0.00;;;;;;;14.99;67.58;98033.25;8217142;29;20250;-79
2022/11/01 05:52:48;;;;;;;0.00;0.00;;;;;;;14.92;67.19;98042.38;8216541;28;20243;-79
2022/11/01 05:56:51;;;;;;;0.00;0.00;;;;;;;14.90;67.29;98041.63;8217574;28;20447;-80
2022/11/01 06:00:57;;;;;;;0.00;0.00;;;;;;;14.94;67.47;98048.31;8214332;29;20265;-79
2022/11/01 06:05:00;;;;;;;0.00;0.00;;;;;;;14.91;67.16;98043.31;8222916;29;20242;-79
2022/11/01 06:09:06;;;;;;;0.10;0.10;;;;;;;14.86;67.46;98045.34;8222261;29;20694;-79
2022/11/01 06:13:09;;;;;;;0.00;0.00;;;;;;;14.90;67.19;98046.84;8222302;29;20239;-79
2022/11/01 06:17:12;;;;;;;0.00;0.00;;;;;;;14.91;67.36;98050.28;8222519;29;20286;-79
2022/11/01 06:21:15;;;;;;;0.00;0.00;;;;;;;14.94;67.96;98055.31;8222349;29;20226;-80
2022/11/01 06:25:19;;;;;;;0.10;0.10;;;;;;;14.97;67.75;98057.75;8221742;29;20521;-79
2022/11/01 06:29:22;;;;;;;0.10;0.10;;;;;;;14.98;67.60;98056.81;8221865;29;20239;-80
2022/11/01 06:33:25;;;;;;;0.00;0.00;;;;;;;15.08;67.34;98060.56;8221780;29;20239;-80
2022/11/01 06:37:27;;;;;;;0.10;0.10;;;;;;;14.94;68.03;98056.16;8221676;29;20238;-80
2022/11/01 06:41:32;;;;;;;0.00;0.00;;;;;;;14.98;67.73;98070.72;8221700;29;20533;-80
2022/11/01 06:45:35;;;;;;;0.00;0.00;;;;;;;15.02;67.75;98081.75;8221506;29;20245;-79
2022/11/01 06:49:38;;;;;;;0.00;0.00;;;;;;;14.90;68.14;98082.53;8220747;29;20424;-80
2022/11/01 06:53:40;;;;;;;0.00;0.00;;;;;;;15.00;68.21;98091.44;8220850;28;20593;-80
2022/11/01 06:57:53;;;;;;;0.00;0.00;;;;;;;15.09;67.57;98100.50;8221000;29;20266;-80
2022/11/01 07:01:56;;;;;;;0.00;0.00;;;;;;;15.09;68.03;98108.31;8212635;29;20270;-79
2022/11/01 07:06:00;;;;;;;0.00;0.00;;;;;;;15.09;67.83;98109.16;8220490;29;20238;-79
2022/11/01 07:10:02;;;;;;;0.00;0.00;;;;;;;14.79;68.71;98115.28;8219911;28;20529;-79
2022/11/01 07:14:07;;;;;;;0.00;0.00;;;;;;;14.89;69.06;98112.13;8220463;29;20238;-79
2022/11/01 07:18:09;;;;;;;0.00;0.00;;;;;;;14.92;68.92;98115.38;8220482;29;20526;-80
2022/11/01 07:22:13;;;;;;;0.00;0.00;;;;;;;14.79;69.80;98120.50;8220334;29;20246;-79
2022/11/01 07:26:16;;;;;;;0.00;0.00;;;;;;;15.05;69.00;98125.94;8220211;29;20246;-80
2022/11/01 07:30:21;;;;;;;0.00;0.00;;;;;;;15.21;67.99;98138.88;8219949;29;20305;-79
2022/11/01 07:34:23;;;;;;;0.00;0.00;;;;;;;15.27;68.26;98148.97;8219609;29;20461;-79
2022/11/01 07:38:26;;;;;;;0.00;0.00;;;;;;;15.38;68.16;98159.59;8219584;29;20231;-79
2022/11/01 07:42:29;;;;;;;0.00;0.00;;;;;;;15.41;68.27;98166.38;8219644;29;20238;-79
2022/11/01 07:46:33;;;;;;;0.00;0.00;;;;;;;15.54;68.01;98166.47;8219250;29;20309;-80
2022/11/01 07:50:37;;;;;;;0.00;0.00;;;;;;;15.68;68.30;98182.09;8219369;29;20238;-79
2022/11/01 07:54:40;;;;;;;0.00;0.00;;;;;;;15.73;67.96;98194.91;8219104;28;20245;-79
2022/11/01 07:58:42;;;;;;;0.00;0.00;;;;;;;15.73;68.16;98176.63;8219178;29;20227;-79
2022/11/01 08:02:47;;;;;;;0.00;0.00;;;;;;;15.73;68.36;98171.41;8219149;29;20235;-80
2022/11/01 08:06:49;;;;;;;0.10;0.10;;;;;;;15.89;68.13;98169.53;8219057;29;20235;-79
2022/11/01 08:10:54;;;;;;;0.00;0.00;;;;;;;15.94;68.02;98175.31;8210432;29;20230;-79
2022/11/01 08:14:57;;;;;;;0.00;0.00;;;;;;;16.01;68.35;98199.25;8218553;29;20234;-77
2022/11/01 08:19:01;;;;;;;0.00;0.00;;;;;;;16.21;67.77;98183.16;8218616;29;20242;-79
2022/11/01 08:23:04;;;;;;;0.00;0.00;;;;;;;16.25;67.69;98185.59;8218298;28;20238;-79
2022/11/01 08:27:08;;;;;;;0.00;0.00;;;;;;;15.43;71.03;98174.94;8218670;29;20241;-79
2022/11/01 08:31:10;;;;;;;0.10;0.10;;;;;;;15.96;69.61;98183.06;8218457;29;20234;-79
2022/11/01 08:35:15;;;;;;;0.00;0.00;;;;;;;16.25;68.55;98165.50;8218286;29;20234;-79
2022/11/01 08:39:17;;;;;;;0.00;0.00;;;;;;;16.28;67.70;98170.56;8218307;29;20226;-79
2022/11/01 08:43:20;;;;;;;0.00;0.00;;;;;;;16.65;67.67;98177.78;8217894;29;20230;-81
2022/11/01 08:47:23;;;;;;;0.00;0.00;;;;;;;16.52;67.84;98178.56;8220864;29;20597;-79
2022/11/01 08:51:28;;;;;;;0.00;0.00;;;;;;;16.85;67.13;98184.31;8217798;28;20231;-78
2022/11/01 08:55:30;;;;;;;0.00;0.00;;;;;;;16.64;68.10;98192.63;8217809;29;20239;-79
2022/11/01 08:59:39;;;;;;;0.00;0.00;;;;;;;17.26;66.08;98192.00;8218520;29;20231;-79
2022/11/01 09:03:42;;;;;;;0.00;0.00;;;;;;;17.96;64.98;98193.31;8217629;29;20238;-79
2022/11/01 09:07:46;;;;;;;0.00;0.00;;;;;;;18.14;63.64;98178.06;8217228;29;20238;-82
2022/11/01 09:11:49;;;;;;;0.00;0.00;;;;;;;17.73;65.53;98177.41;8216817;29;20282;-78
2022/11/01 09:15:52;;;;;;;0.10;0.10;;;;;;;17.41;66.54;98187.50;8216544;29;20247;-80
2022/11/01 09:19:56;;;;;;;0.00;0.00;;;;;;;17.54;66.50;98188.31;8184557;29;20241;-78
2022/11/01 09:24:01;;;;;;;0.00;0.00;;;;;;;17.76;65.23;98174.59;8184794;29;20232;-77
2022/11/01 09:28:04;;;;;;;0.00;0.00;;;;;;;17.38;65.25;98190.31;8184719;29;20237;-79
2022/11/01 09:32:07;;;;;;;0.00;0.00;;;;;;;17.32;65.43;98188.97;8185854;29;20296;-78
2022/11/01 09:36:10;;;;;;;0.10;0.10;;;;;;;17.43;65.98;98200.50;8190597;29;20243;-77
2022/11/01 09:40:15;;;;;;;0.00;0.00;;;;;;;17.39;65.70;98207.72;8190604;29;20251;-77
2022/11/01 09:44:20;;;;;;;0.00;0.00;;;;;;;17.23;65.53;98214.91;8190701;29;20228;-77
2022/11/01 09:48:24;;;;;;;0.00;0.00;;;;;;;17.54;65.51;98217.13;8190431;29;20432;-78
2022/11/01 09:52:27;;;;;;;0.00;0.00;;;;;;;17.56;65.55;98227.50;8190096;29;20231;-78
2022/11/01 09:56:36;;;;;;;0.00;0.00;;;;;;;17.68;64.34;98226.66;8190089;29;20240;-76
2022/11/01 10:00:45;;;;;;;0.00;0.00;;;;;;;17.84;64.30;98236.94;8190108;29;20231;-78
2022/11/01 10:04:58;;;;;;;0.00;0.00;;;;;;;17.76;64.08;98254.91;8190157;29;20655;-78
2022/11/01 10:09:09;;;;;;;0.00;0.00;;;;;;;17.46;65.19;98258.72;8196096;28;20426;-77
2022/11/01 10:13:24;;;;;;;0.00;0.00;;;;;;;17.58;64.89;98257.88;8189930;28;20768;-77
2022/11/01 10:17:40;;;;;;;0.00;0.00;;;;;;;17.61;65.06;98256.84;8189447;28;20458;-73
2022/11/01 10:21:47;;;;;;;0.00;0.00;;;;;;;17.74;64.88;98265.53;8189129;28;20498;-77
2022/11/01 10:25:53;;;;;;;0.00;0.00;;;;;;;17.83;64.52;98263.22;8189264;28;20243;-76
2022/11/01 10:30:01;;;;;;;0.00;0.00;;;;;;;18.33;72.27;98261.44;8212474;29;20235;-76
2022/11/01 10:34:10;;;;;;;0.00;0.00;;;;;;;18.33;69.50;98256.22;8220201;29;20243;-77
2022/11/01 10:38:17;;;;;;;0.00;0.00;;;;;;;18.16;64.24;98250.41;8221136;29;20224;-75
2022/11/01 10:42:40;;;;;;;0.00;0.00;;;;;;;18.31;63.46;98247.63;8220483;28;20227;-75
2022/11/01 10:46:46;;;;;;;0.00;0.00;;;;;;;18.31;62.01;98250.25;8219947;29;20562;-75
2022/11/01 10:50:50;;;;;;;0.00;0.00;;;;;;;18.36;61.49;98250.75;8219941;29;20515;-75
2022/11/01 10:54:53;;;;;;;0.10;0.10;;;;;;;18.43;61.53;98244.13;8219070;28;20419;-75
2022/11/01 10:59:00;;;;;;;0.00;0.00;;;;;;;18.70;60.42;98240.44;8219971;29;20243;-76
2022/11/01 11:03:17;;;;;;;0.00;0.00;;;;;;;18.78;59.91;98239.88;8219918;29;20240;-75
2022/11/01 11:07:20;;;;;;;0.00;0.00;;;;;;;18.83;60.44;98246.50;8219178;29;20244;-75
2022/11/01 11:11:32;;;;;;;0.00;0.00;;;;;;;18.99;59.91;98237.50;8219215;29;20235;-75
2022/11/01 11:15:42;;;;;;;0.00;0.00;;;;;;;18.93;60.29;98239.63;8218602;29;20231;-76
2022/11/01 11:19:47;;;;;;;0.00;0.00;;;;;;;18.94;60.29;98229.94;8219059;29;20527;-75
2022/11/01 11:23:50;;;;;;;0.00;0.00;;;;;;;18.96;60.38;98230.66;8218663;29;20244;-75
2022/11/01 11:27:53;;;;;;;0.00;0.00;;;;;;;19.04;59.70;98224.84;8210877;28;20275;-76
2022/11/01 11:31:58;;;;;;;0.00;0.00;;;;;;;19.03;60.40;98233.69;8219028;29;20240;-75
2022/11/01 11:36:02;;;;;;;0.00;0.00;;;;;;;19.00;61.05;98237.38;8219006;29;20252;-76
2022/11/01 11:40:19;;;;;;;0.00;0.00;;;;;;;18.84;59.99;98237.66;8218846;29;20240;-76
2022/11/01 11:44:38;;;;;;;0.00;0.00;;;;;;;18.83;60.26;98238.63;8218505;29;20233;-76
2022/11/01 11:48:51;;;;;;;0.00;0.00;;;;;;;18.50;59.70;98232.22;8218394;29;20423;-75
2022/11/01 11:52:59;;;;;;;0.00;0.00;;;;;;;18.67;59.46;98222.31;8209657;29;20252;-75
2022/11/01 11:57:09;;;;;;;0.10;0.10;;;;;;;18.87;59.60;98234.81;8217728;28;20606;-75
2022/11/01 12:01:14;;;;;;;0.00;0.00;;;;;;;18.94;59.40;98232.56;8217871;29;20240;-75
2022/11/01 12:05:19;;;;;;;0.00;0.00;;;;;;;18.72;60.25;98233.31;8216900;29;20241;-75
2022/11/01 12:09:41;;;;;;;0.03;0.03;;;;;;;18.56;59.81;98231.81;8217447;29;20228;-75
2022/11/01 12:13:46;;;;;;;0.00;0.00;;;;;;;18.61;60.12;98220.97;8217428;29;20230;-75
2022/11/01 12:17:49;;;;;;;0.00;0.00;;;;;;;18.65;59.71;98232.91;8217393;29;20516;-75
2022/11/01 12:21:51;;;;;;;0.00;0.00;;;;;;;18.81;59.23;98226.56;8217073;29;20243;-75
2022/11/01 12:25:57;;;;;;;0.00;0.00;;;;;;;18.97;58.83;98226.28;8201195;29;20231;-76
2022/11/01 12:30:07;;;;;;;0.00;0.00;;;;;;;19.09;57.93;98218.28;8217387;29;20523;-77
2022/11/01 12:34:15;;;;;;;0.00;0.00;;;;;;;19.23;57.86;98222.53;8217052;29;20245;-77
2022/11/01 12:38:39;;;;;;;0.00;0.00;;;;;;;19.35;57.20;98231.25;8216881;29;20231;-76
2022/11/01 12:42:47;;;;;;;0.00;0.00;;;;;;;19.34;56.64;98225.19;8216442;29;20248;-76
2022/11/01 12:46:53;;;;;;;0.00;0.00;;;;;;;19.37;55.94;98224.09;8216521;29;20522;-75
2022/11/01 12:50:58;;;;;;;0.00;0.00;;;;;;;19.37;55.14;98226.72;8191597;28;20246;-75
2022/11/01 12:55:06;;;;;;;0.00;0.00;;;;;;;19.14;54.54;98224.03;8184422;28;20335;-76
2022/11/01 12:59:15;;;;;;;0.00;0.00;;;;;;;19.32;55.41;98232.34;8184585;28;20249;-76
2022/11/01 13:03:28;;;;;;;0.00;0.00;;;;;;;19.35;55.51;98239.13;8184691;28;20401;-76
2022/11/01 13:07:39;;;;;;;0.00;0.00;;;;;;;19.34;55.33;98240.06;8186360;28;20234;-74
2022/11/01 13:11:48;;;;;;;0.00;0.00;;;;;;;19.13;55.92;98245.16;8191584;28;20233;-75
2022/11/01 13:15:59;;;;;;;0.00;0.00;;;;;;;19.21;56.16;98250.69;8191213;28;20310;-75
2022/11/01 13:20:18;;;;;;;0.00;0.00;;;;;;;19.15;56.18;98251.13;8222239;29;20281;-75
2022/11/01 13:24:26;;;;;;;0.00;0.00;;;;;;;19.20;56.00;98243.75;8223169;29;20276;-75
2022/11/01 13:28:48;;;;;;;0.00;0.00;;;;;;;19.59;54.18;98236.44;8222566;29;20435;-75
2022/11/01 13:32:58;;;;;;;0.00;0.00;;;;;;;19.54;54.31;98234.13;8222545;29;20537;-75
2022/11/01 13:37:05;;;;;;;0.00;0.00;;;;;;;19.53;55.11;98239.50;8207394;29;20317;-75
2022/11/01 13:41:18;;;;;;;0.00;0.00;;;;;;;19.34;55.25;98243.56;8205879;29;20236;-76
2022/11/01 13:45:44;;;;;;;0.00;0.00;;;;;;;19.02;55.42;98242.50;8222380;29;20341;-74
2022/11/01 13:50:00;;;;;;;0.00;0.00;;;;;;;18.91;55.55;98249.38;8222599;29;20246;-76
2022/11/01 13:54:06;;;;;;;0.00;0.00;;;;;;;18.92;55.22;98253.69;8190900;29;20444;-76
2022/11/01 13:58:14;;;;;;;0.00;0.00;;;;;;;18.76;55.70;98242.63;8190604;29;20250;-77
2022/11/01 14:02:51;;;;;;;0.00;0.00;;;;;;;18.85;55.77;98244.59;8189928;29;20257;-75
2022/11/01 14:07:12;;;;;;;0.00;0.00;;;;;;;19.25;55.44;98248.66;8221108;29;20239;-76
2022/11/01 14:11:46;;;;;;;0.00;0.00;;;;;;;19.62;54.47;98249.31;8221206;29;20229;-76
2022/11/01 14:16:26;;;;;;;0.00;0.00;;;;;;;19.75;53.57;98249.25;8221193;29;20441;-76
2022/11/01 14:20:45;;;;;;;0.00;0.00;;;;;;;19.72;54.02;98254.72;8211811;29;20233;-76
2022/11/01 14:24:55;;;;;;;0.00;0.00;;;;;;;19.82;53.19;98252.22;8220706;29;20245;-75
2022/11/01 14:29:01;;;;;;;0.00;0.00;;;;;;;19.92;53.68;98247.94;8212109;29;20564;-75
2022/11/01 14:33:05;;;;;;;0.00;0.00;;;;;;;19.95;53.50;98247.66;8220250;29;20241;-76
2022/11/01 14:37:20;;;;;;;0.00;0.00;;;;;;;19.85;53.21;98259.88;8219935;29;20234;-74
2022/11/01 14:41:25;;;;;;;0.00;0.00;;;;;;;19.56;54.16;98259.47;8219902;29;20227;-75
2022/11/01 14:45:32;;;;;;;0.00;0.00;;;;;;;19.36;54.33;98266.22;8220215;29;20245;-75
2022/11/01 14:49:40;;;;;;;0.00;0.00;;;;;;;19.38;54.43;98262.53;8219846;29;20292;-74
2022/11/01 14:53:45;;;;;;;0.00;0.00;;;;;;;19.44;54.93;98256.81;8219194;28;20246;-74
2022/11/01 14:57:49;;;;;;;0.00;0.00;;;;;;;19.32;55.12;98263.84;8219771;29;20245;-74
2022/11/01 15:01:55;;;;;;;0.00;0.00;;;;;;;19.21;55.29;98271.69;8203548;29;20395;-74
2022/11/01 15:06:04;;;;;;;0.00;0.00;;;;;;;19.07;55.73;98275.31;8219774;29;20546;-76
2022/11/01 15:10:09;;;;;;;0.00;0.00;;;;;;;19.07;56.12;98277.94;8219575;29;20261;-75
2022/11/01 15:14:20;;;;;;;0.00;0.00;;;;;;;18.94;56.09;98287.69;8219017;29;20329;-74
2022/11/01 15:18:23;;;;;;;0.00;0.00;;;;;;;18.81;55.70;98279.88;8218794;29;20233;-75
2022/11/01 15:22:28;;;;;;;0.00;0.00;;;;;;;18.71;55.90;98284.91;8218161;29;20368;-76
2022/11/01 15:26:32;;;;;;;0.00;0.00;;;;;;;18.61;55.99;98289.16;8218244;29;20238;-75
2022/11/01 15:30:36;;;;;;;0.00;0.00;;;;;;;18.61;55.73;98294.41;8217629;28;20238;-75
2022/11/01 15:34:39;;;;;;;0.00;0.00;;;;;;;18.50;56.01;98303.03;8218641;29;20532;-76
2022/11/01 15:38:50;;;;;;;0.00;0.00;;;;;;;18.45;56.58;98309.56;8218231;29;20238;-74
2022/11/01 15:42:56;;;;;;;0.00;0.00;;;;;;;18.33;56.95;98303.41;8202000;29;20233;-74
2022/11/01 15:47:02;;;;;;;0.00;0.00;;;;;;;18.25;57.31;98308.34;8217744;29;20236;-75
2022/11/01 15:51:07;;;;;;;0.00;0.00;;;;;;;18.13;58.12;98313.50;8218206;29;20246;-75
2022/11/01 15:55:15;;;;;;;0.00;0.00;;;;;;;18.09;58.52;98305.97;8216223;28;20241;-75
2022/11/01 15:59:23;;;;;;;0.00;0.00;;;;;;;18.04;58.07;98306.28;8216885;29;20314;-74
2022/11/01 16:03:30;;;;;;;0.00;0.00;;;;;;;17.92;58.17;98310.59;8217649;29;20239;-75
2022/11/01 16:07:33;;;;;;;0.00;0.00;;;;;;;17.85;58.40;98311.94;8217402;29;20428;-75
2022/11/01 16:11:37;;;;;;;0.00;0.00;;;;;;;17.84;58.31;98307.69;8216896;29;20233;-74
2022/11/01 16:15:39;;;;;;;0.00;0.00;;;;;;;17.79;58.52;98314.97;8217274;29;20248;-74
2022/11/01 16:19:47;;;;;;;0.00;0.00;;;;;;;17.72;58.69;98316.31;8217591;29;20237;-74
2022/11/01 16:23:50;;;;;;;0.00;0.00;;;;;;;17.61;58.99;98327.53;8217606;29;20242;-74
2022/11/01 16:27:58;;;;;;;0.00;0.00;;;;;;;17.52;58.84;98330.78;8184940;29;20237;-74
2022/11/01 16:32:05;;;;;;;0.00;0.00;;;;;;;17.47;59.10;98340.72;8185039;29;20258;-74
2022/11/01 16:36:36;;;;;;;0.00;0.00;;;;;;;17.39;59.17;98342.03;8184887;29;20238;-76
2022/11/01 16:40:39;;;;;;;0.00;0.00;;;;;;;17.31;59.60;98348.75;8185139;29;20233;-75
2022/11/01 16:44:42;;;;;;;0.00;0.00;;;;;;;17.28;59.79;98356.78;8185048;29;20409;-75
2022/11/01 16:48:50;;;;;;;0.00;0.00;;;;;;;17.22;59.46;98362.44;8184935;29;20558;-75
2022/11/01 16:52:55;;;;;;;0.00;0.00;;;;;;;17.16;59.53;98367.13;8207743;28;20258;-74
2022/11/01 16:56:58;;;;;;;0.00;0.00;;;;;;;17.12;59.63;98364.81;8215992;29;20243;-75
2022/11/01 17:01:01;;;;;;;0.00;0.00;;;;;;;17.02;59.83;98377.66;8216040;29;20246;-75
2022/11/01 17:05:08;;;;;;;0.00;0.00;;;;;;;16.97;59.91;98374.47;8216128;29;20236;-75
2022/11/01 17:09:14;;;;;;;0.00;0.00;;;;;;;17.02;59.76;98380.28;8216179;29;20238;-75
2022/11/01 17:13:17;;;;;;;0.10;0.03;;;;;;;17.51;73.67;98395.38;8215759;29;20246;-76
2022/11/01 17:17:23;;;;;;;0.00;0.00;;;;;;;17.83;70.75;98399.44;8215850;29;20590;-76
2022/11/01 17:21:27;;;;;;;0.00;0.00;;;;;;;17.56;60.92;98400.31;8215423;29;20360;-76
2022/11/01 17:25:31;;;;;;;0.00;0.00;;;;;;;17.26;59.75;98401.38;8215629;29;20245;-79
2022/11/01 17:29:34;;;;;;;0.00;0.00;;;;;;;17.10;59.85;98409.38;8215550;29;20323;-81
2022/11/01 17:33:37;;;;;;;0.00;0.00;;;;;;;17.00;60.01;98403.03;8215615;29;20243;-76
2022/11/01 17:37:40;;;;;;;0.00;0.00;;;;;;;16.97;60.24;98404.09;8215382;29;20243;-76
2022/11/01 17:41:44;;;;;;;0.00;0.00;;;;;;;16.91;60.23;98404.50;8215570;29;20541;-77
2022/11/01 17:45:47;;;;;;;0.00;0.00;;;;;;;16.74;60.29;98405.50;8216002;29;20235;-78
2022/11/01 17:49:50;;;;;;;0.00;0.00;;;;;;;16.79;60.76;98411.31;8215785;29;20246;-76
2022/11/01 17:53:54;;;;;;;0.00;0.00;;;;;;;16.72;60.54;98417.00;8201454;28;20242;-87
2022/11/01 17:57:58;;;;;;;0.00;0.00;;;;;;;16.67;60.80;98417.28;8221315;29;20243;-74
2022/11/01 18:02:00;;;;;;;0.00;0.00;;;;;;;16.64;61.17;98419.25;8221290;29;20242;-75
2022/11/01 18:06:04;;;;;;;0.00;0.00;;;;;;;16.51;61.44;98416.56;8221124;29;20238;-77
2022/11/01 18:10:16;;;;;;;0.00;0.00;;;;;;;16.55;60.95;98425.91;8220917;29;20239;-74
2022/11/01 18:14:23;;;;;;;0.07;0.07;;;;;;;16.53;61.13;98422.53;8220908;29;20238;-76
2022/11/01 18:18:44;;;;;;;0.00;0.00;;;;;;;16.47;61.08;98426.38;8220838;29;20242;-76
2022/11/01 18:22:50;;;;;;;0.03;0.03;;;;;;;16.38;61.11;98422.53;8221232;29;20239;-76
2022/11/01 18:26:52;;;;;;;0.00;0.00;;;;;;;16.38;61.16;98419.09;8212247;29;20238;-78
2022/11/01 18:30:58;;;;;;;0.00;0.00;;;;;;;16.27;61.14;98411.06;8220646;29;20241;-76
2022/11/01 18:35:05;;;;;;;0.00;0.00;;;;;;;16.15;60.71;98425.69;8220906;29;20246;-77
2022/11/01 18:39:15;;;;;;;0.00;0.00;;;;;;;16.12;60.99;98424.09;8220100;29;20266;-77
2022/11/01 18:43:19;;;;;;;0.00;0.00;;;;;;;16.01;60.89;98413.44;8220344;29;20231;-76
2022/11/01 18:47:26;;;;;;;0.00;0.00;;;;;;;16.02;60.89;98425.59;8220748;29;20415;-77
2022/11/01 18:51:30;;;;;;;0.00;0.00;;;;;;;15.99;61.18;98424.00;8220345;28;20282;-78
2022/11/01 18:55:33;;;;;;;0.00;0.00;;;;;;;15.97;60.85;98425.00;8221155;29;20238;-76
2022/11/01 18:59:38;;;;;;;0.10;0.10;;;;;;;15.97;61.01;98419.78;8221028;29;20249;-86
2022/11/01 19:03:42;;;;;;;0.00;0.00;;;;;;;15.91;61.39;98425.38;8221213;28;20298;-85
2022/11/01 19:07:46;;;;;;;0.00;0.00;;;;;;;15.86;61.10;98416.97;8221152;29;20265;-81
2022/11/01 19:12:14;;;;;;;0.00;0.00;;;;;;;15.83;61.19;98423.22;8212307;28;20519;-81
2022/11/01 19:16:18;;;;;;;0.00;0.00;;;;;;;15.72;60.88;98418.56;8220782;29;20553;-84
2022/11/01 19:20:24;;;;;;;0.00;0.00;;;;;;;15.71;61.21;98429.13;8220700;29;20231;-81
2022/11/01 19:24:31;;;;;;;0.10;0.10;;;;;;;15.67;61.07;98425.84;8221717;29;20227;-76
2022/11/01 19:28:37;;;;;;;0.00;0.00;;;;;;;15.63;61.03;98426.94;8220254;29;20289;-79